Motion Scan — PCNB — position and weather

sailwx.info

Track history (hours):
 
Tides and Currents Weather Stations Pressure Air Temp Water Temp Dewpoint Dewpoint Depression Visibility Wind Speed Wind Dir Waves Ship Positions

Motion Scan

Last reported at 2015-Apr-29 20:09 UTC. Time now 2015-May-04 14:04 UTC.
Position N 33°48' W 021°58'.

Length 116 m; draft 5.5 m.

Type: Cargo ship. MMSI: 245523000.

Date/timePositionNaut miles runAvg speedWind from/ knotsBaromVisibWave heightAir tempDewpointWater temp
2015-Apr-29 20:09N 33°48' W 021°58'  
2015-Apr-27 04:09N 35°58' W 005°36'710.0
2015-Apr-27 03:28N 36°00' W 005°28'9 9.4
2015-Apr-27 02:33N 36°07' W 005°21'0 0.1
2015-Apr-27 01:33N 36°07' W 005°21'0 0.1
2015-Apr-27 00:33N 36°07' W 005°21'0 0.0
2015-Apr-26 23:06N 36°07' W 005°21'0 0.0
2015-Apr-26 22:33N 36°07' W 005°21'0 0.0
2015-Apr-26 21:27N 36°07' W 005°21'0 0.0
2015-Apr-26 20:33N 36°07' W 005°21'0 0.0
2015-Apr-26 19:33N 36°07' W 005°21'0 0.0
2015-Apr-26 18:33N 36°07' W 005°21'0 0.1
2015-Apr-26 17:33N 36°07' W 005°21'0 0.3
2015-Apr-26 16:33N 36°07' W 005°22'7 7.2
2015-Apr-26 15:33N 36°08' W 005°13'0 0.4
2015-Apr-26 14:33N 36°07' W 005°13'1 0.9
2015-Apr-26 13:33N 36°07' W 005°14'2 0.5
2015-Apr-26 10:30N 36°08' W 005°13'2 0.6
2015-Apr-26 06:33N 36°07' W 005°10'11511.3
2015-Apr-25 20:24N 36°13' W 002°48'1212.7
2015-Apr-25 19:26N 36°14' W 002°33'1112.4
2015-Apr-25 18:33N 36°15' W 002°19'1212.1
2015-Apr-25 17:33N 36°16' W 002°04'1212.5
2015-Apr-25 16:34N 36°21' W 001°50'1313.1
2015-Apr-25 15:33N 36°25' W 001°34'1413.0
2015-Apr-25 14:31N 36°29' W 001°18'1212.9
2015-Apr-25 13:33N 36°33' W 001°03'1313.3
2015-Apr-25 12:33N 36°37' W 000°48'1313.2
2015-Apr-25 11:33N 36°41' W 000°32'1813.0
2015-Apr-25 10:09N 36°47' W 000°11'1013.3
2015-Apr-25 09:26N 36°50' E 000°01'1113.0
2015-Apr-25 08:33N 36°53' E 000°14'2912.9
2015-Apr-25 06:20N 37°02' E 000°48'2312.5
2015-Apr-25 04:32N 37°09' E 001°15'1212.1
2015-Apr-25 03:32N 37°13' E 001°29'2512.8
2015-Apr-25 01:33N 37°21' E 001°60'3213.0
2015-Apr-24 23:04N 37°31' E 002°38'713.0
2015-Apr-24 22:32N 37°33' E 002°46'2613.3
2015-Apr-24 20:33N 37°36' E 003°19'1313.3
2015-Apr-24 19:33N 37°37' E 003°36'2713.2
2015-Apr-24 17:32N 37°37' E 004°10'1313.3
2015-Apr-24 16:32N 37°38' E 004°27'2713.6
2015-Apr-24 14:33N 37°38' E 005°00'28912.9
2015-Apr-23 16:15N 37°29' E 011°05'4812.9
2015-Apr-23 12:33N 37°06' E 011°57'1312.9
2015-Apr-23 11:33N 37°01' E 012°12'1312.8
2015-Apr-23 10:33N 36°56' E 012°27'1313.2
2015-Apr-23 09:33N 36°51' E 012°42'1413.7
2015-Apr-23 08:33N 36°46' E 012°58'1413.8
2015-Apr-23 07:33N 36°41' E 013°14'1413.8
2015-Apr-23 06:33N 36°36' E 013°30'1413.8
2015-Apr-23 05:33N 36°31' E 013°46'1413.7
2015-Apr-23 04:33N 36°27' E 014°02'1413.7
2015-Apr-23 03:34N 36°22' E 014°18'1312.6
2015-Apr-23 02:34N 36°15' E 014°31'1313.3
2015-Apr-23 01:34N 36°10' E 014°46'1313.4
2015-Apr-23 00:34N 36°07' E 015°02'1313.1
2015-Apr-22 23:33N 36°04' E 015°18'1412.8
2015-Apr-22 22:29N 35°60' E 015°35'1212.9
2015-Apr-22 21:34N 35°57' E 015°49'1913.1
2015-Apr-22 20:08N 35°53' E 016°11'813.1
2015-Apr-22 19:32N 35°51' E 016°21'  
2015-Apr-20 08:32N 32°40' E 031°22'1513.3
2015-Apr-20 07:26N 32°37' E 031°39'1613.4
2015-Apr-20 06:16N 32°33' E 031°57'1013.4
2015-Apr-20 05:32N 32°30' E 032°08'1313.6
2015-Apr-20 04:33N 32°27' E 032°23'1713.9
2015-Apr-20 03:21N 32°23' E 032°42'1114.0
2015-Apr-20 02:33N 32°20' E 032°55'1414.1
2015-Apr-20 01:34N 32°17' E 033°11'1414.3
2015-Apr-20 00:33N 32°13' E 033°28'1414.1
2015-Apr-19 23:34N 32°10' E 033°44'1414.0
2015-Apr-19 22:33N 32°05' E 033°59'1414.0
2015-Apr-19 21:33N 31°59' E 034°14'1413.7
2015-Apr-19 20:33N 31°53' E 034°29'  
Track history (hours):
 
Tides and Currents Weather Stations Pressure Air Temp Water Temp Dewpoint Dewpoint Depression Visibility Wind Speed Wind Dir Waves Ship Positions

Motion Scan

Last reported at 2015-Apr-29 20:09 UTC. Time now 2015-May-04 14:04 UTC.
Position N 33°48' W 021°58'.

Length 116 m; draft 5.5 m.

Type: Cargo ship. MMSI: 245523000.

Date/timePositionNaut miles runAvg speedWind from/ knotsBaromVisibWave heightAir tempDewpointWater temp
2015-Apr-29 20:09N 33°48' W 021°58'  
2015-Apr-27 04:09N 35°58' W 005°36'710.0
2015-Apr-27 03:28N 36°00' W 005°28'9 9.4
2015-Apr-27 02:33N 36°07' W 005°21'0 0.1
2015-Apr-27 01:33N 36°07' W 005°21'0 0.1
2015-Apr-27 00:33N 36°07' W 005°21'0 0.0
2015-Apr-26 23:06N 36°07' W 005°21'0 0.0
2015-Apr-26 22:33N 36°07' W 005°21'0 0.0
2015-Apr-26 21:27N 36°07' W 005°21'0 0.0
2015-Apr-26 20:33N 36°07' W 005°21'0 0.0
2015-Apr-26 19:33N 36°07' W 005°21'0 0.0
2015-Apr-26 18:33N 36°07' W 005°21'0 0.1
2015-Apr-26 17:33N 36°07' W 005°21'0 0.3
2015-Apr-26 16:33N 36°07' W 005°22'7 7.2
2015-Apr-26 15:33N 36°08' W 005°13'0 0.4
2015-Apr-26 14:33N 36°07' W 005°13'1 0.9
2015-Apr-26 13:33N 36°07' W 005°14'2 0.5
2015-Apr-26 10:30N 36°08' W 005°13'2 0.6
2015-Apr-26 06:33N 36°07' W 005°10'11511.3
2015-Apr-25 20:24N 36°13' W 002°48'1212.7
2015-Apr-25 19:26N 36°14' W 002°33'1112.4
2015-Apr-25 18:33N 36°15' W 002°19'1212.1
2015-Apr-25 17:33N 36°16' W 002°04'1212.5
2015-Apr-25 16:34N 36°21' W 001°50'1313.1
2015-Apr-25 15:33N 36°25' W 001°34'1413.0
2015-Apr-25 14:31N 36°29' W 001°18'1212.9
2015-Apr-25 13:33N 36°33' W 001°03'1313.3
2015-Apr-25 12:33N 36°37' W 000°48'1313.2
2015-Apr-25 11:33N 36°41' W 000°32'1813.0
2015-Apr-25 10:09N 36°47' W 000°11'1013.3
2015-Apr-25 09:26N 36°50' E 000°01'1113.0
2015-Apr-25 08:33N 36°53' E 000°14'2912.9
2015-Apr-25 06:20N 37°02' E 000°48'2312.5
2015-Apr-25 04:32N 37°09' E 001°15'1212.1
2015-Apr-25 03:32N 37°13' E 001°29'2512.8
2015-Apr-25 01:33N 37°21' E 001°60'3213.0
2015-Apr-24 23:04N 37°31' E 002°38'713.0
2015-Apr-24 22:32N 37°33' E 002°46'2613.3
2015-Apr-24 20:33N 37°36' E 003°19'1313.3
2015-Apr-24 19:33N 37°37' E 003°36'2713.2
2015-Apr-24 17:32N 37°37' E 004°10'1313.3
2015-Apr-24 16:32N 37°38' E 004°27'2713.6
2015-Apr-24 14:33N 37°38' E 005°00'28912.9
2015-Apr-23 16:15N 37°29' E 011°05'4812.9
2015-Apr-23 12:33N 37°06' E 011°57'1312.9
2015-Apr-23 11:33N 37°01' E 012°12'1312.8
2015-Apr-23 10:33N 36°56' E 012°27'1313.2
2015-Apr-23 09:33N 36°51' E 012°42'1413.7
2015-Apr-23 08:33N 36°46' E 012°58'1413.8
2015-Apr-23 07:33N 36°41' E 013°14'1413.8
2015-Apr-23 06:33N 36°36' E 013°30'1413.8
2015-Apr-23 05:33N 36°31' E 013°46'1413.7
2015-Apr-23 04:33N 36°27' E 014°02'1413.7
2015-Apr-23 03:34N 36°22' E 014°18'1312.6
2015-Apr-23 02:34N 36°15' E 014°31'1313.3
2015-Apr-23 01:34N 36°10' E 014°46'1313.4
2015-Apr-23 00:34N 36°07' E 015°02'1313.1
2015-Apr-22 23:33N 36°04' E 015°18'1412.8
2015-Apr-22 22:29N 35°60' E 015°35'1212.9
2015-Apr-22 21:34N 35°57' E 015°49'1913.1
2015-Apr-22 20:08N 35°53' E 016°11'813.1
2015-Apr-22 19:32N 35°51' E 016°21'  
2015-Apr-20 08:32N 32°40' E 031°22'1513.3
2015-Apr-20 07:26N 32°37' E 031°39'1613.4
2015-Apr-20 06:16N 32°33' E 031°57'1013.4
2015-Apr-20 05:32N 32°30' E 032°08'1313.6
2015-Apr-20 04:33N 32°27' E 032°23'1713.9
2015-Apr-20 03:21N 32°23' E 032°42'1114.0
2015-Apr-20 02:33N 32°20' E 032°55'1414.1
2015-Apr-20 01:34N 32°17' E 033°11'1414.3
2015-Apr-20 00:33N 32°13' E 033°28'1414.1
2015-Apr-19 23:34N 32°10' E 033°44'1414.0
2015-Apr-19 22:33N 32°05' E 033°59'1414.0
2015-Apr-19 21:33N 31°59' E 034°14'1413.7
2015-Apr-19 20:33N 31°53' E 034°29'  

Dump ship's entire track history